createdAt,value
2024-01-24T00:02:31.681Z,98.20
2024-01-24T00:07:34.692Z,98.24
2024-01-24T00:12:37.670Z,98.21
2024-01-24T00:17:41.490Z,98.14
2024-01-24T00:22:44.339Z,98.21
2024-01-24T00:27:47.765Z,98.47
2024-01-24T00:32:50.663Z,98.44
2024-01-24T00:37:53.419Z,98.32
2024-01-24T00:42:56.181Z,98.54
2024-01-24T00:47:59.121Z,98.53
2024-01-24T00:53:05.468Z,98.85
2024-01-24T00:58:08.760Z,98.95
2024-01-24T01:03:11.601Z,99.05
2024-01-24T01:08:14.684Z,99.37
2024-01-24T01:13:17.608Z,99.52
2024-01-24T01:18:20.400Z,99.18
2024-01-24T01:23:23.372Z,99.22
2024-01-24T01:28:26.129Z,99.60
2024-01-24T01:33:28.995Z,99.24
2024-01-24T01:38:32.039Z,99.45
2024-01-24T01:43:34.834Z,99.23
2024-01-24T01:48:38.895Z,99.37
2024-01-24T01:53:41.918Z,99.44
2024-01-24T01:58:46.313Z,99.53
2024-01-24T02:03:49.389Z,99.27
2024-01-24T02:08:52.853Z,99.42
2024-01-24T02:14:00.445Z,98.87
2024-01-24T02:19:03.834Z,98.77
2024-01-24T02:24:11.701Z,98.54
2024-01-24T02:29:15.020Z,98.64
2024-01-24T02:34:17.935Z,98.29
2024-01-24T02:39:20.908Z,98.07
2024-01-24T02:44:23.866Z,98.23
2024-01-24T02:49:26.702Z,98.23
2024-01-24T02:54:30.545Z,98.22
2024-01-24T02:59:33.583Z,98.42
2024-01-24T03:04:36.509Z,98.04
2024-01-24T03:09:39.409Z,98.22
2024-01-24T03:14:42.330Z,98.06
2024-01-24T03:19:45.733Z,97.90
2024-01-24T03:24:48.788Z,97.64
2024-01-24T03:29:51.614Z,97.65
2024-01-24T03:34:55.772Z,97.67
2024-01-24T03:39:58.808Z,97.15
2024-01-24T03:45:02.009Z,96.67
2024-01-24T03:50:05.433Z,96.65
2024-01-24T03:55:08.963Z,96.42
2024-01-24T04:00:12.887Z,95.99
2024-01-24T04:05:16.277Z,95.80
2024-01-24T04:10:19.057Z,95.63
2024-01-24T04:15:21.885Z,95.19
2024-01-24T04:20:24.662Z,95.04
2024-01-24T04:25:27.589Z,94.69
2024-01-24T04:30:30.677Z,94.41
2024-01-24T04:35:33.605Z,94.17
2024-01-24T04:40:36.366Z,93.97
2024-01-24T04:45:39.120Z,94.00
2024-01-24T04:50:42.103Z,94.73
2024-01-24T04:55:45.511Z,95.10
2024-01-24T05:00:49.519Z,96.23
2024-01-24T05:06:00.985Z,97.47
2024-01-24T05:11:07.887Z,98.73
2024-01-24T05:16:10.866Z,99.77
2024-01-24T05:21:13.692Z,100.00
2024-01-24T05:26:16.741Z,100.00
2024-01-24T05:31:19.579Z,100.00
2024-01-24T05:36:22.898Z,100.00
2024-01-24T05:41:26.111Z,100.00
2024-01-24T05:46:28.972Z,100.00
2024-01-24T05:51:31.842Z,100.00
2024-01-24T05:56:34.716Z,100.00
2024-01-24T06:01:37.984Z,100.00
2024-01-24T06:06:41.736Z,100.00
2024-01-24T06:16:47.625Z,100.00
2024-01-24T06:21:50.562Z,100.00
2024-01-24T06:26:53.855Z,100.00
2024-01-24T06:31:58.429Z,100.00
2024-01-24T06:37:01.326Z,100.00
2024-01-24T06:42:04.397Z,100.00
2024-01-24T06:47:07.406Z,100.00
2024-01-24T06:52:10.206Z,100.00
2024-01-24T06:57:13.108Z,100.00
2024-01-24T07:02:15.972Z,100.00
2024-01-24T07:07:19.011Z,100.00
2024-01-24T07:12:22.185Z,100.00
2024-01-24T07:17:25.258Z,100.00
2024-01-24T07:22:28.876Z,100.00
2024-01-24T07:27:33.094Z,100.00
2024-01-24T07:32:40.715Z,100.00
2024-01-24T07:37:45.660Z,100.00
2024-01-24T07:42:55.400Z,100.00
2024-01-24T07:47:59.461Z,100.00
2024-01-24T07:53:02.379Z,100.00
2024-01-24T07:58:05.516Z,100.00
2024-01-24T08:03:09.294Z,100.00
2024-01-24T08:08:12.500Z,100.00
2024-01-24T08:13:15.720Z,100.00
2024-01-24T08:18:19.195Z,100.00
2024-01-24T08:23:26.522Z,100.00
2024-01-24T08:28:31.894Z,100.00
2024-01-24T08:33:34.952Z,100.00
2024-01-24T08:38:38.365Z,100.00
2024-01-24T08:43:41.364Z,100.00
2024-01-24T08:48:44.702Z,100.00
2024-01-24T08:53:47.848Z,100.00
2024-01-24T08:58:50.869Z,100.00
2024-01-24T09:03:54.898Z,100.00
2024-01-24T09:08:57.959Z,100.00
2024-01-24T09:14:00.938Z,100.00
2024-01-24T09:19:05.239Z,100.00
2024-01-24T09:24:08.883Z,100.00
2024-01-24T09:29:13.777Z,100.00
2024-01-24T09:34:18.189Z,100.00
2024-01-24T09:39:21.367Z,100.00
2024-01-24T09:44:26.417Z,100.00
2024-01-24T09:49:32.441Z,100.00
2024-01-24T09:54:36.456Z,100.00
2024-01-24T09:59:39.563Z,100.00
2024-01-24T10:04:45.450Z,100.00
2024-01-24T10:09:49.259Z,100.00
2024-01-24T10:14:53.171Z,100.00
2024-01-24T10:19:56.261Z,100.00
2024-01-24T10:24:59.814Z,100.00
2024-01-24T10:30:03.318Z,100.00
2024-01-24T10:35:07.805Z,100.00
2024-01-24T10:40:16.267Z,100.00
2024-01-24T10:45:21.556Z,100.00
2024-01-24T10:50:26.033Z,100.00
2024-01-24T10:55:31.267Z,100.00
2024-01-24T11:00:34.916Z,100.00
2024-01-24T11:05:55.755Z,100.00
2024-01-24T11:11:04.631Z,100.00
2024-01-24T11:16:32.834Z,100.00
2024-01-24T11:21:36.732Z,100.00
2024-01-24T11:26:39.970Z,100.00
2024-01-24T11:31:44.953Z,100.00
2024-01-24T11:36:52.821Z,100.00
2024-01-24T11:42:25.240Z,100.00
2024-01-24T11:47:28.535Z,100.00
2024-01-24T11:52:31.426Z,100.00
2024-01-24T11:57:34.681Z,100.00
2024-01-24T12:02:38.129Z,100.00
2024-01-24T12:07:41.061Z,100.00
2024-01-24T12:12:44.879Z,100.00
2024-01-24T12:17:47.788Z,100.00
2024-01-24T12:22:50.709Z,100.00
2024-01-24T12:27:54.225Z,100.00
2024-01-24T12:32:58.935Z,100.00
2024-01-24T12:38:04.036Z,100.00
2024-01-24T12:43:07.133Z,100.00
2024-01-24T12:48:12.505Z,100.00
2024-01-24T12:53:15.681Z,100.00
2024-01-24T12:58:19.102Z,100.00
2024-01-24T13:03:23.463Z,100.00
2024-01-24T13:08:27.686Z,100.00
2024-01-24T13:13:30.902Z,100.00
2024-01-24T13:18:34.031Z,100.00
2024-01-24T13:23:36.931Z,99.72
2024-01-24T13:28:41.126Z,99.52
2024-01-24T13:33:46.496Z,96.67
2024-01-24T13:38:50.249Z,96.00
2024-01-24T13:43:53.954Z,94.94
2024-01-24T13:48:57.202Z,94.79
2024-01-24T13:54:00.219Z,93.71
2024-01-24T13:59:03.437Z,93.67
2024-01-24T14:04:06.795Z,93.43
2024-01-24T14:09:11.713Z,92.41
2024-01-24T14:14:14.673Z,92.33
2024-01-24T14:19:17.687Z,92.49
2024-01-24T14:24:21.613Z,92.18
2024-01-24T14:29:24.949Z,92.66
2024-01-24T14:34:28.012Z,93.84
2024-01-24T14:39:31.156Z,95.24
2024-01-24T14:44:34.049Z,96.59
2024-01-24T14:49:36.958Z,97.12
2024-01-24T14:54:40.866Z,97.43
2024-01-24T14:59:44.090Z,98.99
2024-01-24T15:04:46.926Z,100.00
2024-01-24T15:09:50.475Z,100.00
2024-01-24T15:14:53.523Z,100.00
2024-01-24T15:19:57.053Z,100.00
2024-01-24T15:25:03.147Z,100.00
2024-01-24T15:30:07.696Z,100.00
2024-01-24T15:35:11.392Z,100.00
2024-01-24T15:40:17.920Z,100.00
2024-01-24T15:45:26.113Z,100.00
2024-01-24T15:50:29.307Z,100.00
2024-01-24T15:55:32.998Z,100.00
2024-01-24T16:00:36.079Z,100.00
2024-01-24T16:05:47.287Z,100.00
2024-01-24T16:10:50.557Z,100.00
2024-01-24T16:15:53.805Z,100.00
2024-01-24T16:20:56.760Z,100.00
2024-01-24T16:26:00.052Z,100.00
2024-01-24T16:31:04.036Z,100.00
2024-01-24T16:36:07.423Z,100.00
2024-01-24T16:41:11.877Z,100.00
2024-01-24T16:46:15.743Z,100.00
2024-01-24T16:51:18.695Z,100.00
2024-01-24T16:56:21.595Z,100.00
2024-01-24T17:01:24.634Z,100.00
2024-01-24T17:06:27.651Z,100.00
2024-01-24T17:11:30.645Z,100.00
2024-01-24T17:16:33.626Z,100.00
2024-01-24T17:21:36.903Z,100.00
2024-01-24T17:26:40.154Z,100.00
2024-01-24T17:31:43.045Z,100.00
2024-01-24T17:36:45.797Z,100.00
2024-01-24T17:41:49.346Z,100.00
2024-01-24T17:46:55.179Z,100.00
2024-01-24T17:51:58.200Z,100.00
2024-01-24T17:57:01.279Z,100.00
2024-01-24T18:02:04.416Z,100.00
2024-01-24T18:07:07.586Z,100.00
2024-01-24T18:12:11.406Z,100.00
2024-01-24T18:17:14.316Z,100.00
2024-01-24T18:22:17.249Z,100.00
2024-01-24T18:27:20.109Z,100.00
2024-01-24T18:32:22.957Z,100.00
2024-01-24T18:37:26.208Z,100.00
2024-01-24T18:42:29.177Z,100.00
2024-01-24T18:47:32.419Z,100.00
2024-01-24T18:52:35.662Z,100.00
2024-01-24T18:57:39.326Z,100.00
2024-01-24T19:02:42.750Z,100.00
2024-01-24T19:07:46.239Z,100.00
2024-01-24T19:12:49.582Z,100.00
2024-01-24T19:17:52.782Z,100.00
2024-01-24T19:22:57.397Z,100.00
2024-01-24T19:28:00.457Z,100.00
2024-01-24T19:33:03.787Z,100.00
2024-01-24T19:38:06.857Z,100.00
2024-01-24T19:43:09.989Z,100.00
2024-01-24T19:48:14.627Z,100.00
2024-01-24T19:53:21.109Z,100.00
2024-01-24T19:58:30.213Z,100.00
2024-01-24T20:03:33.336Z,100.00
2024-01-24T20:08:36.604Z,100.00
2024-01-24T20:13:39.529Z,100.00
2024-01-24T20:18:42.435Z,100.00
2024-01-24T20:23:45.457Z,100.00
2024-01-24T20:28:48.336Z,100.00
2024-01-24T20:33:51.449Z,100.00
2024-01-24T20:38:54.502Z,100.00
2024-01-24T20:43:57.385Z,100.00
2024-01-24T20:49:00.733Z,100.00
2024-01-24T20:54:08.125Z,100.00
2024-01-24T20:59:11.802Z,100.00
2024-01-24T21:04:15.448Z,100.00
2024-01-24T21:09:18.525Z,100.00
2024-01-24T21:14:21.561Z,100.00
2024-01-24T21:19:25.813Z,100.00
2024-01-24T21:24:28.993Z,100.00
2024-01-24T21:29:31.908Z,100.00
2024-01-24T21:34:34.923Z,100.00
2024-01-24T21:39:37.928Z,100.00
2024-01-24T21:44:40.813Z,100.00
2024-01-24T21:49:43.853Z,100.00
2024-01-24T21:54:52.515Z,100.00
2024-01-24T21:59:55.562Z,100.00
2024-01-24T22:04:58.390Z,100.00
2024-01-24T22:10:01.752Z,100.00
2024-01-24T22:15:09.401Z,100.00
2024-01-24T22:20:12.462Z,100.00
2024-01-24T22:25:15.555Z,100.00
2024-01-24T22:30:19.364Z,100.00
2024-01-24T22:35:22.624Z,100.00
2024-01-24T22:40:27.018Z,100.00
2024-01-24T22:45:29.943Z,100.00
2024-01-24T22:50:34.182Z,100.00
2024-01-24T22:55:37.536Z,100.00
2024-01-24T23:00:40.432Z,100.00
2024-01-24T23:05:43.426Z,100.00
2024-01-24T23:10:46.348Z,100.00
2024-01-24T23:15:49.291Z,100.00
2024-01-24T23:20:53.830Z,100.00
2024-01-24T23:25:56.727Z,100.00
2024-01-24T23:30:59.619Z,100.00
2024-01-24T23:36:05.445Z,100.00
2024-01-24T23:41:08.320Z,100.00
2024-01-24T23:46:11.680Z,100.00
2024-01-24T23:51:15.211Z,100.00
2024-01-24T23:56:18.318Z,100.00
